Time;durP1;ratioP1;P1;durP2;ratioP2;P2;SDS_P1;SDS_P2;PMS_P1;PMS_P2;Temp;Humidity;BMP_temperature;BMP_pressure;BME280_temperature;BME280_humidity;BME280_pressure;Samples;Min_cycle;Max_cycle;Signal;HPM_P1;HPM_P2
2021/10/19 00:02:38;;;;;;;22.10;14.33;;;;;;;10.68;81.71;101126.78;2809769;85;21039;-68
2021/10/19 00:06:40;;;;;;;18.37;14.55;;;;;;;10.71;81.64;101121.27;2809624;84;21088;-68
2021/10/19 00:10:42;;;;;;;20.52;14.03;;;;;;;10.76;81.37;101122.27;2809600;84;21028;-68
2021/10/19 00:14:44;;;;;;;25.65;13.53;;;;;;;10.67;81.48;101111.31;2809780;85;21016;-68
2021/10/19 00:18:45;;;;;;;20.17;11.97;;;;;;;10.64;81.72;101103.55;2809779;85;21008;-68
2021/10/19 00:22:47;;;;;;;26.97;15.40;;;;;;;10.65;81.59;101102.59;2809601;85;21068;-68
2021/10/19 00:27:12;;;;;;;16.77;13.15;;;;;;;10.68;81.55;101106.83;2809734;82;21923;-68
2021/10/19 00:31:14;;;;;;;28.50;16.87;;;;;;;10.68;81.67;101105.50;2809894;85;21068;-70
2021/10/19 00:35:16;;;;;;;25.43;16.77;;;;;;;10.74;81.44;101097.58;2809510;85;20989;-68
2021/10/19 00:39:24;;;;;;;19.42;15.13;;;;;;;10.71;80.56;101087.52;2809644;85;21032;-67
2021/10/19 00:43:26;;;;;;;16.65;14.87;;;;;;;10.64;80.66;101098.23;2809489;85;20974;-68
2021/10/19 00:47:46;;;;;;;23.32;16.70;;;;;;;10.56;80.42;101089.44;2809674;85;21016;-68
2021/10/19 00:51:40;;;;;;;26.40;15.15;;;;;;;10.48;80.74;101089.59;2808216;84;21008;-68
2021/10/19 00:56:25;;;;;;;31.68;19.37;;;;;;;10.27;81.41;101083.42;2809287;85;21044;-68
2021/10/19 01:00:26;;;;;;;28.50;20.08;;;;;;;9.97;83.17;101076.09;2809741;85;21025;-69
2021/10/19 01:04:31;;;;;;;51.80;27.15;;;;;;;9.65;85.33;101078.22;2809572;85;21036;-68
2021/10/19 01:08:37;;;;;;;101.18;58.00;;;;;;;9.55;85.20;101077.97;2812743;84;21085;-68
2021/10/19 01:12:42;;;;;;;82.15;40.58;;;;;;;9.48;85.85;101069.55;2822130;84;21050;-67
2021/10/19 01:17:09;;;;;;;36.05;23.65;;;;;;;9.38;86.69;101069.28;2822196;84;21073;-68
2021/10/19 01:21:11;;;;;;;46.80;28.25;;;;;;;9.31;87.11;101062.64;2768834;84;21075;-68
2021/10/19 01:25:32;;;;;;;90.85;51.53;;;;;;;9.21;87.62;101051.77;2845944;83;20980;-68
2021/10/19 01:29:34;;;;;;;32.98;21.82;;;;;;;9.26;86.56;101047.03;2845955;83;20984;-67
2021/10/19 01:33:36;;;;;;;19.98;14.13;;;;;;;9.32;86.41;101050.23;2845991;83;21023;-68
2021/10/19 01:37:39;;;;;;;18.48;13.48;;;;;;;9.50;86.19;101052.16;2846081;83;21031;-68
2021/10/19 01:41:46;;;;;;;21.57;15.23;;;;;;;9.66;85.10;101042.73;2845834;83;20991;-68
2021/10/19 01:45:53;;;;;;;16.93;12.73;;;;;;;9.51;84.59;101042.78;2845773;83;21004;-68
2021/10/19 01:49:55;;;;;;;30.05;21.48;;;;;;;9.28;86.01;101024.34;2845850;83;21003;-68
2021/10/19 01:53:58;;;;;;;21.23;15.53;;;;;;;9.12;86.74;101024.00;2846006;83;20995;-68
2021/10/19 01:58:08;;;;;;;17.60;12.68;;;;;;;9.04;87.47;101017.48;2845950;83;21040;-68
2021/10/19 02:02:14;;;;;;;18.27;13.83;;;;;;;8.95;87.77;101010.49;2845953;83;21011;-68
2021/10/19 02:06:15;;;;;;;22.32;15.00;;;;;;;8.97;87.87;101019.70;2846045;83;21043;-67
2021/10/19 02:10:17;;;;;;;17.42;13.20;;;;;;;8.93;88.00;101016.37;2850642;83;20987;-69
2021/10/19 02:14:30;;;;;;;15.90;12.73;;;;;;;8.90;87.79;100997.14;2853047;83;21125;-68
2021/10/19 02:18:32;;;;;;;18.25;13.30;;;;;;;8.84;87.86;100993.93;2853468;83;21058;-68
2021/10/19 02:22:34;;;;;;;21.25;13.32;;;;;;;8.85;88.33;100998.78;2853215;83;20995;-68
2021/10/19 02:26:36;;;;;;;13.98;12.18;;;;;;;8.85;88.03;101002.75;2849768;83;20960;-68
2021/10/19 02:31:06;;;;;;;13.98;11.15;;;;;;;8.82;88.03;101002.47;2849549;83;21057;-68
2021/10/19 02:35:11;;;;;;;19.57;14.03;;;;;;;8.80;88.44;100995.54;2849823;83;21492;-69
2021/10/19 02:39:38;;;;;;;20.15;12.25;;;;;;;8.73;88.98;100987.60;2848571;83;21063;-69
2021/10/19 02:43:40;;;;;;;19.23;13.65;;;;;;;8.66;89.32;100978.72;2849739;83;20976;-68
2021/10/19 02:48:39;;;;;;;20.40;13.93;;;;;;;8.67;89.35;100984.39;2849591;83;21019;-68
2021/10/19 02:52:41;;;;;;;18.55;13.05;;;;;;;8.77;88.84;100981.14;2849746;83;21066;-68
2021/10/19 02:56:43;;;;;;;17.73;11.68;;;;;;;9.02;87.98;100990.19;2849689;83;21059;-70
2021/10/19 03:00:44;;;;;;;16.12;12.95;;;;;;;9.16;87.13;100994.64;2849278;83;20986;-70
2021/10/19 03:05:16;;;;;;;19.73;13.53;;;;;;;9.24;86.64;101002.94;2849565;83;20987;-67
2021/10/19 03:09:19;;;;;;;20.70;13.38;;;;;;;9.35;86.65;101004.89;2849265;82;21087;-69
2021/10/19 03:13:20;;;;;;;17.85;12.28;;;;;;;9.48;85.78;101001.82;2849487;83;21074;-68
2021/10/19 03:17:23;;;;;;;17.25;12.13;;;;;;;9.60;85.33;101009.45;2849551;83;20999;-68
2021/10/19 03:21:25;;;;;;;13.98;11.65;;;;;;;9.62;84.88;101002.23;2849382;83;20976;-70
2021/10/19 03:25:33;;;;;;;11.75;10.65;;;;;;;9.58;84.82;100997.59;2849638;83;20964;-69
2021/10/19 03:29:35;;;;;;;15.40;11.10;;;;;;;9.51;85.09;100990.13;2849306;83;21075;-67
2021/10/19 03:33:37;;;;;;;19.42;11.80;;;;;;;9.53;85.20;100985.09;2849515;83;20940;-67
2021/10/19 03:37:40;;;;;;;17.27;11.85;;;;;;;9.62;84.93;100987.62;2849010;83;21095;-67
2021/10/19 03:41:42;;;;;;;14.90;11.05;;;;;;;9.69;84.60;100995.54;2852820;83;21020;-67
2021/10/19 03:45:47;;;;;;;18.87;13.03;;;;;;;9.76;84.22;100992.50;2862463;83;21011;-66
2021/10/19 03:49:49;;;;;;;22.10;14.83;;;;;;;9.84;83.97;100993.68;2848911;83;21080;-66
2021/10/19 03:53:51;;;;;;;21.02;13.65;;;;;;;9.92;83.57;100991.80;2849508;83;20990;-67
2021/10/19 03:58:03;;;;;;;18.00;13.78;;;;;;;9.96;83.19;100995.98;2849376;83;21002;-66
2021/10/19 04:02:05;;;;;;;19.23;14.60;;;;;;;9.98;82.98;100991.88;2849475;83;21020;-67
2021/10/19 04:06:19;;;;;;;24.07;15.72;;;;;;;9.96;82.72;100992.00;2849367;83;20999;-69
2021/10/19 04:10:27;;;;;;;28.67;17.87;;;;;;;9.93;82.87;100990.02;2831566;83;21056;-67
2021/10/19 04:14:30;;;;;;;19.60;15.15;;;;;;;9.91;82.78;100993.25;2815956;84;21004;-66
2021/10/19 04:18:40;;;;;;;22.90;15.93;;;;;;;9.85;82.81;101005.14;2809849;84;21024;-67
2021/10/19 04:22:41;;;;;;;19.90;14.93;;;;;;;9.83;82.95;101006.59;2815734;84;20992;-67
2021/10/19 04:26:44;;;;;;;24.00;14.50;;;;;;;9.82;83.11;100998.71;2815763;84;20977;-66
2021/10/19 04:30:51;;;;;;;25.10;16.05;;;;;;;9.57;83.99;100999.87;2810053;84;21056;-66
2021/10/19 04:34:52;;;;;;;20.45;14.53;;;;;;;9.14;85.75;100964.20;2735957;86;20964;-66
2021/10/19 04:38:54;;;;;;;23.45;15.80;;;;;;;8.78;88.01;100969.59;2755125;86;20976;-66
2021/10/19 04:43:00;;;;;;;18.32;13.60;;;;;;;8.52;89.39;100961.48;2754975;86;21051;-66
2021/10/19 04:47:02;;;;;;;23.05;14.03;;;;;;;8.40;90.12;100969.70;2757626;85;21059;-64
2021/10/19 04:51:14;;;;;;;25.48;17.32;;;;;;;8.38;89.57;100983.03;2758242;83;21003;-64
2021/10/19 04:55:17;;;;;;;27.87;18.10;;;;;;;8.43;89.27;100974.80;2852304;83;20980;-64
2021/10/19 04:59:18;;;;;;;18.60;15.20;;;;;;;8.27;89.86;100953.70;2806901;85;21000;-64
2021/10/19 05:03:20;;;;;;;27.13;17.37;;;;;;;8.08;90.93;100942.90;2758210;86;21012;-64
2021/10/19 05:07:22;;;;;;;21.42;16.02;;;;;;;7.94;91.78;100944.20;2851944;83;21047;-64
2021/10/19 05:11:36;;;;;;;21.65;15.45;;;;;;;7.83;92.78;100950.14;2834686;83;21617;-63
2021/10/19 05:15:38;;;;;;;20.68;14.58;;;;;;;7.99;90.96;100954.91;2866543;83;21059;-63
2021/10/19 05:19:42;;;;;;;15.35;13.70;;;;;;;8.14;90.25;100957.55;2866349;83;21071;-64
2021/10/19 05:23:45;;;;;;;19.95;15.50;;;;;;;8.23;89.38;100948.19;2866516;83;21001;-64
2021/10/19 05:27:47;;;;;;;23.62;14.55;;;;;;;8.22;89.29;100951.33;2866767;83;21024;-64
2021/10/19 05:31:51;;;;;;;27.75;15.83;;;;;;;8.37;89.03;100965.42;2866408;83;21095;-63
2021/10/19 05:35:53;;;;;;;17.55;13.72;;;;;;;8.55;88.05;100966.13;2866822;83;20972;-63
2021/10/19 05:39:57;;;;;;;16.02;13.50;;;;;;;8.68;87.03;100969.31;2866617;83;20992;-64
2021/10/19 05:43:59;;;;;;;17.73;12.88;;;;;;;8.75;84.76;100969.78;2829685;83;21003;-64
2021/10/19 05:48:06;;;;;;;21.25;15.23;;;;;;;8.71;83.14;100961.16;2818456;84;21020;-63
2021/10/19 05:52:07;;;;;;;19.37;12.80;;;;;;;8.61;82.36;100960.89;2817941;84;21111;-63
2021/10/19 05:56:10;;;;;;;19.67;14.98;;;;;;;8.55;82.73;100954.66;2818499;84;21018;-63
2021/10/19 06:00:12;;;;;;;16.95;12.68;;;;;;;8.59;83.92;100947.37;2818326;84;21040;-64
2021/10/19 06:04:22;;;;;;;21.25;14.50;;;;;;;8.70;85.43;100946.20;2818124;84;21016;-63
2021/10/19 06:08:23;;;;;;;19.70;13.83;;;;;;;8.59;87.55;100938.09;2818344;84;20996;-63
2021/10/19 06:12:27;;;;;;;22.80;13.05;;;;;;;8.48;90.21;100933.43;2839487;82;21046;-63
2021/10/19 06:16:28;;;;;;;17.73;12.18;;;;;;;8.38;91.45;100927.84;2809242;84;21024;-63
2021/10/19 06:20:32;;;;;;;14.45;11.10;;;;;;;8.40;90.90;100928.60;2809145;85;21033;-63
2021/10/19 06:24:34;;;;;;;18.27;13.03;;;;;;;8.44;91.61;100930.94;2809430;85;20961;-63
2021/10/19 06:28:36;;;;;;;14.85;9.90;;;;;;;8.52;92.01;100936.30;2785962;85;20957;-63
2021/10/19 06:32:40;;;;;;;15.68;12.05;;;;;;;8.70;91.59;100948.39;2809235;85;21501;-63
2021/10/19 06:36:49;;;;;;;18.73;12.55;;;;;;;8.97;90.92;100956.02;2809175;85;21486;-63
2021/10/19 06:40:51;;;;;;;18.70;14.90;;;;;;;9.27;91.57;100946.52;2809273;85;21008;-64
2021/10/19 06:44:53;;;;;;;26.80;24.05;;;;;;;9.83;91.19;100961.42;2809027;85;21021;-63
2021/10/19 06:48:54;;;;;;;22.52;17.70;;;;;;;10.39;89.05;100958.90;2809140;85;20997;-63
2021/10/19 06:52:56;;;;;;;21.33;17.10;;;;;;;10.83;86.60;100962.05;2808845;85;21001;-64
2021/10/19 06:56:58;;;;;;;17.77;14.93;;;;;;;11.20;87.11;100966.52;2809286;85;21033;-63
2021/10/19 07:01:02;;;;;;;31.48;23.55;;;;;;;11.54;85.39;100975.97;2809179;85;21080;-64
2021/10/19 07:05:05;;;;;;;15.20;11.35;;;;;;;11.69;83.39;100968.66;2809192;85;21025;-64
2021/10/19 07:09:07;;;;;;;12.13;9.20;;;;;;;11.64;83.23;100966.80;2809232;84;20962;-64
2021/10/19 07:13:09;;;;;;;11.65;9.33;;;;;;;11.71;83.83;100953.86;2849460;83;21010;-64
2021/10/19 07:17:11;;;;;;;10.45;9.35;;;;;;;11.71;84.80;100949.39;2849432;83;21077;-64
2021/10/19 07:21:13;;;;;;;11.28;8.80;;;;;;;11.80;84.49;100963.84;2849385;83;21014;-64
2021/10/19 07:25:23;;;;;;;17.73;10.70;;;;;;;11.93;84.53;100966.88;2849334;83;20989;-64
2021/10/19 07:29:25;;;;;;;22.48;11.95;;;;;;;11.99;83.93;100963.76;2849368;83;20990;-64
2021/10/19 07:33:27;;;;;;;29.57;19.52;;;;;;;12.08;84.01;100961.73;2849211;83;21022;-65
2021/10/19 07:37:28;;;;;;;18.48;13.55;;;;;;;12.31;84.41;100947.07;2848941;83;20943;-64
2021/10/19 07:41:37;;;;;;;21.62;15.35;;;;;;;12.35;83.72;100944.52;2853085;83;21256;-64
2021/10/19 07:45:39;;;;;;;21.40;14.58;;;;;;;12.42;84.03;100943.09;2852729;83;21264;-64
2021/10/19 07:49:41;;;;;;;19.80;10.93;;;;;;;12.46;84.98;100934.83;2849365;83;20966;-64
2021/10/19 07:53:45;;;;;;;19.50;12.15;;;;;;;12.58;84.94;100931.19;2849404;83;21022;-64
2021/10/19 07:57:50;;;;;;;13.40;10.98;;;;;;;12.82;84.71;100934.18;2849399;83;21049;-64
2021/10/19 08:01:57;;;;;;;38.13;23.32;;;;;;;13.06;83.49;100925.13;2849137;83;21033;-64
2021/10/19 08:06:00;;;;;;;13.80;10.80;;;;;;;13.34;82.52;100929.50;2849433;83;20986;-64
2021/10/19 08:10:01;;;;;;;15.53;11.60;;;;;;;13.67;80.98;100930.35;2848399;83;21002;-64
2021/10/19 08:14:03;;;;;;;14.83;11.12;;;;;;;13.89;79.45;100915.14;2809085;84;21040;-64
2021/10/19 08:18:06;;;;;;;16.00;10.00;;;;;;;14.16;79.33;100919.11;2809247;85;21009;-64
2021/10/19 08:22:09;;;;;;;22.25;13.75;;;;;;;14.38;79.15;100920.73;2809271;85;21598;-64
2021/10/19 08:26:11;;;;;;;15.83;11.10;;;;;;;14.64;79.72;100910.86;2809175;85;21064;-65
2021/10/19 08:30:17;;;;;;;45.10;30.10;;;;;;;14.75;78.46;100916.66;2809132;85;21040;-64
2021/10/19 08:34:19;;;;;;;19.17;13.83;;;;;;;14.90;78.45;100918.44;2808870;85;21013;-65
2021/10/19 08:42:21;;;;;;;18.37;12.03;;;;;;;15.50;75.85;100908.91;2787925;85;21125;-64
2021/10/19 08:46:23;;;;;;;7.62;5.65;;;;;;;15.78;76.43;100909.02;2815674;84;21562;-65
2021/10/19 08:50:30;;;;;;;7.55;5.65;;;;;;;16.02;74.08;100916.27;2852483;83;21010;-64
2021/10/19 08:54:32;;;;;;;5.90;5.22;;;;;;;16.26;71.86;100915.25;2852724;83;20978;-64
2021/10/19 08:58:34;;;;;;;9.50;6.22;;;;;;;16.41;70.04;100910.23;2852894;83;20993;-64
2021/10/19 09:02:42;;;;;;;8.63;4.90;;;;;;;16.55;69.18;100918.28;2853034;83;21050;-64
2021/10/19 09:06:44;;;;;;;6.37;5.55;;;;;;;16.61;67.58;100912.81;2852902;83;20962;-64
2021/10/19 09:10:48;;;;;;;12.98;6.20;;;;;;;16.64;67.78;100904.45;2852887;83;21046;-64
2021/10/19 09:14:50;;;;;;;8.58;5.67;;;;;;;16.72;67.39;100899.67;2852609;83;20982;-65
2021/10/19 09:19:02;;;;;;;9.58;5.58;;;;;;;16.69;66.19;100898.63;2852647;83;21049;-64
2021/10/19 09:23:06;;;;;;;10.75;4.83;;;;;;;16.87;67.75;100897.30;2852904;83;21018;-65
2021/10/19 09:27:15;;;;;;;9.23;5.75;;;;;;;16.99;67.12;100902.84;2852751;83;20994;-64
2021/10/19 09:31:17;;;;;;;5.60;4.08;;;;;;;17.10;66.86;100900.94;2852853;83;21001;-65
2021/10/19 09:35:22;;;;;;;4.62;3.58;;;;;;;17.16;64.87;100886.02;2852755;83;20975;-65
2021/10/19 09:39:41;;;;;;;7.50;4.00;;;;;;;17.23;64.81;100887.09;2852824;83;20946;-64
2021/10/19 09:43:43;;;;;;;5.22;3.12;;;;;;;17.33;65.00;100876.26;2842877;83;21050;-65
2021/10/19 09:47:45;;;;;;;4.05;3.62;;;;;;;17.46;66.13;100876.67;2808297;84;21108;-64
2021/10/19 09:51:50;;;;;;;5.03;4.08;;;;;;;17.59;66.38;100876.77;2808254;85;21044;-64
2021/10/19 09:55:55;;;;;;;5.67;3.35;;;;;;;17.64;63.46;100862.34;2808191;85;21032;-64
2021/10/19 09:59:58;;;;;;;4.85;3.58;;;;;;;17.72;63.20;100853.00;2808636;85;21033;-64
2021/10/19 10:04:00;;;;;;;6.60;3.30;;;;;;;17.89;64.65;100849.88;2808335;85;21017;-64
2021/10/19 10:08:05;;;;;;;4.33;3.92;;;;;;;18.01;63.00;100842.37;2808151;85;20974;-64
2021/10/19 10:12:08;;;;;;;5.20;3.00;;;;;;;18.06;61.70;100840.06;2808405;85;20992;-64
2021/10/19 10:16:21;;;;;;;6.10;4.12;;;;;;;18.13;62.09;100840.27;2808254;85;20973;-64
2021/10/19 10:20:44;;;;;;;4.95;4.45;;;;;;;18.30;63.01;100843.02;2808319;85;20993;-65
2021/10/19 10:24:46;;;;;;;7.40;4.10;;;;;;;18.44;62.68;100834.80;2808406;85;21089;-65
2021/10/19 10:28:48;;;;;;;3.50;2.87;;;;;;;18.65;62.85;100833.84;2808277;85;21001;-65
2021/10/19 10:32:50;;;;;;;4.22;3.22;;;;;;;18.73;61.08;100823.58;2808463;85;21053;-64
2021/10/19 10:36:54;;;;;;;3.30;2.62;;;;;;;18.84;60.44;100815.67;2807721;85;21044;-65
2021/10/19 10:41:12;;;;;;;4.75;3.50;;;;;;;18.89;60.12;100812.48;2808575;84;20985;-65
2021/10/19 10:45:22;;;;;;;3.87;2.47;;;;;;;18.86;60.33;100804.22;2814824;84;21553;-64
2021/10/19 10:49:24;;;;;;;4.72;3.15;;;;;;;18.86;58.95;100798.83;2815740;84;21020;-65
2021/10/19 10:53:40;;;;;;;4.08;2.70;;;;;;;18.98;59.60;100813.70;2815673;84;21065;-65
2021/10/19 10:57:44;;;;;;;;;;;;;;;18.98;59.84;100816.40;2816310;84;21028;-65
2021/10/19 11:01:46;;;;;;;3.40;2.33;;;;;;;19.05;60.08;100804.93;2852224;83;20097;-64
2021/10/19 11:05:57;;;;;;;4.70;3.27;;;;;;;19.06;59.73;100795.83;2852900;83;20978;-64
2021/10/19 11:10:15;;;;;;;4.42;2.77;;;;;;;19.12;59.31;100787.91;2852789;83;20998;-65
2021/10/19 11:14:23;;;;;;;5.67;3.00;;;;;;;19.19;59.53;100778.64;2852299;83;21027;-65
2021/10/19 11:18:35;;;;;;;5.30;3.20;;;;;;;19.31;59.08;100768.86;2852668;83;20939;-65
2021/10/19 11:22:37;;;;;;;5.05;2.83;;;;;;;19.35;59.39;100766.14;2852750;83;20986;-65
2021/10/19 11:26:40;;;;;;;3.40;2.58;;;;;;;19.31;57.84;100763.46;2852657;83;20986;-65
2021/10/19 11:30:48;;;;;;;4.10;2.70;;;;;;;19.35;58.71;100757.53;2852431;83;21069;-65
2021/10/19 11:34:50;;;;;;;2.83;2.58;;;;;;;19.34;58.05;100767.16;2852101;83;21061;-65
2021/10/19 11:38:56;;;;;;;3.75;2.30;;;;;;;19.36;57.11;100756.55;2858881;83;21049;-64
2021/10/19 11:42:58;;;;;;;3.75;2.33;;;;;;;19.37;57.85;100753.32;2846741;83;20987;-64
2021/10/19 11:47:02;;;;;;;7.58;3.20;;;;;;;19.40;57.63;100736.79;2808382;85;21088;-65
2021/10/19 11:51:07;;;;;;;3.95;3.10;;;;;;;19.40;58.05;100734.09;2808481;85;20977;-65
2021/10/19 11:55:17;;;;;;;4.00;3.02;;;;;;;19.46;58.14;100723.98;2808428;84;21049;-64
2021/10/19 11:59:19;;;;;;;2.67;2.33;;;;;;;19.45;57.95;100718.22;2808505;85;21041;-65
2021/10/19 12:03:31;;;;;;;4.50;2.80;;;;;;;19.51;58.73;100724.29;2808355;85;21059;-65
2021/10/19 12:07:33;;;;;;;4.05;2.85;;;;;;;19.66;57.42;100716.82;2808436;85;21041;-64
2021/10/19 12:11:52;;;;;;;9.48;3.37;;;;;;;19.58;56.00;100712.79;2808385;85;20973;-64
2021/10/19 12:15:59;;;;;;;3.50;3.17;;;;;;;19.69;57.40;100706.50;2808594;85;21009;-65
2021/10/19 12:20:02;;;;;;;4.92;4.12;;;;;;;19.76;57.29;100699.06;2808462;85;21037;-65
2021/10/19 12:24:05;;;;;;;5.90;3.92;;;;;;;19.84;57.18;100699.01;2808145;85;20993;-65
2021/10/19 12:28:07;;;;;;;5.22;2.60;;;;;;;19.83;56.51;100682.48;2808217;85;20989;-64
2021/10/19 12:32:09;;;;;;;8.63;4.28;;;;;;;19.80;55.98;100676.09;2808507;85;20953;-65
2021/10/19 12:36:11;;;;;;;6.10;3.12;;;;;;;19.74;55.58;100669.55;2808237;85;21044;-65
2021/10/19 12:40:19;;;;;;;4.30;2.58;;;;;;;19.64;55.06;100667.55;2808130;85;21005;-64
2021/10/19 12:44:22;;;;;;;4.28;3.10;;;;;;;19.61;57.22;100655.28;2808315;83;21036;-65
2021/10/19 12:48:40;;;;;;;3.72;3.02;;;;;;;19.51;55.96;100660.03;2808258;85;21031;-64
2021/10/19 12:52:42;;;;;;;9.73;2.58;;;;;;;19.51;56.16;100652.80;2808592;85;20979;-64
2021/10/19 12:56:49;;;;;;;3.80;2.95;;;;;;;19.46;57.27;100655.19;2808322;85;20999;-64
2021/10/19 13:00:51;;;;;;;6.40;3.08;;;;;;;19.41;57.20;100660.25;2808274;84;21010;-64
2021/10/19 13:04:54;;;;;;;7.65;3.02;;;;;;;19.39;57.57;100657.74;2808461;84;21094;-65
2021/10/19 13:08:57;;;;;;;7.70;3.98;;;;;;;19.41;57.08;100654.36;2808503;85;21014;-64
2021/10/19 13:12:59;;;;;;;5.47;3.83;;;;;;;19.36;57.34;100640.56;2808098;84;21054;-64
2021/10/19 13:17:00;;;;;;;10.50;6.45;;;;;;;19.35;56.87;100642.08;2808410;85;21546;-62
2021/10/19 13:21:02;;;;;;;12.05;6.85;;;;;;;19.20;56.95;100648.71;2807889;85;21055;-65
2021/10/19 13:25:05;;;;;;;5.92;3.90;;;;;;;19.20;57.99;100646.84;2806437;85;21014;-59
2021/10/19 13:29:06;;;;;;;5.08;3.77;;;;;;;19.23;57.62;100642.97;2805990;85;21041;-60
2021/10/19 13:33:08;;;;;;;6.47;4.10;;;;;;;19.36;57.80;100645.10;2805941;85;21134;-59
2021/10/19 13:37:29;;;;;;;7.75;4.58;;;;;;;19.33;58.60;100648.16;2807717;83;21023;-60
2021/10/19 13:41:32;;;;;;;5.90;4.67;;;;;;;19.37;58.33;100654.37;2760743;86;21013;-60
2021/10/19 13:45:34;;;;;;;9.45;4.20;;;;;;;19.37;58.35;100652.17;2834946;83;20965;-59
2021/10/19 13:49:36;;;;;;;11.65;6.42;;;;;;;19.50;59.57;100649.77;2769689;86;21057;-59
2021/10/19 13:53:39;;;;;;;8.23;4.45;;;;;;;19.46;57.74;100643.55;2784221;85;21006;-60
2021/10/19 13:57:46;;;;;;;16.35;5.35;;;;;;;19.52;58.81;100637.43;2814170;84;29712;-60
2021/10/19 14:01:49;;;;;;;8.95;6.37;;;;;;;19.58;58.49;100630.00;2821252;84;21054;-60
2021/10/19 14:05:51;;;;;;;7.75;5.35;;;;;;;19.59;58.11;100623.59;2821237;84;20984;-60
2021/10/19 14:10:07;;;;;;;5.75;4.70;;;;;;;19.49;57.78;100625.65;2821088;84;21046;-60
2021/10/19 14:14:11;;;;;;;6.75;4.45;;;;;;;19.40;58.28;100625.70;2821152;81;20999;-61
2021/10/19 14:18:23;;;;;;;6.95;5.33;;;;;;;19.20;58.50;100625.80;2821130;84;21089;-60
2021/10/19 14:22:27;;;;;;;8.30;5.53;;;;;;;19.21;59.30;100626.13;2821277;83;21749;-60
2021/10/19 14:26:29;;;;;;;8.13;6.53;;;;;;;19.13;59.69;100632.38;2821377;84;20983;-61
2021/10/19 14:30:32;;;;;;;12.68;7.75;;;;;;;19.12;60.29;100630.17;2821575;84;20991;-60
2021/10/19 14:34:35;;;;;;;12.13;7.28;;;;;;;19.09;60.10;100630.53;2821460;84;20991;-60
2021/10/19 14:38:37;;;;;;;11.65;8.23;;;;;;;19.03;60.62;100616.91;2799196;84;21006;-59
2021/10/19 14:42:39;;;;;;;8.85;6.10;;;;;;;18.91;60.92;100619.95;2767650;86;21035;-60
2021/10/19 14:46:51;;;;;;;17.30;8.60;;;;;;;18.80;61.30;100617.61;2840820;82;21041;-59
2021/10/19 14:50:54;;;;;;;7.97;7.20;;;;;;;18.74;61.43;100608.88;2839376;83;21105;-59
2021/10/19 14:54:59;;;;;;;10.28;6.45;;;;;;;18.62;61.25;100607.88;2838523;83;21018;-60
2021/10/19 14:59:00;;;;;;;12.37;6.87;;;;;;;18.49;61.52;100600.32;2839742;83;21060;-62
2021/10/19 15:03:03;;;;;;;10.75;8.35;;;;;;;18.34;61.26;100596.14;2839433;84;21013;-60
2021/10/19 15:07:11;;;;;;;9.23;6.40;;;;;;;18.24;61.65;100596.80;2839347;84;21033;-59
2021/10/19 15:11:14;;;;;;;11.60;8.13;;;;;;;18.13;62.27;100579.99;2845294;83;21052;-61
2021/10/19 15:15:16;;;;;;;20.57;14.58;;;;;;;17.98;62.18;100578.94;2853294;83;20994;-63
2021/10/19 15:19:21;;;;;;;18.45;11.50;;;;;;;17.83;62.59;100573.39;2826518;83;21061;-61
2021/10/19 15:23:25;;;;;;;12.73;8.37;;;;;;;17.66;63.10;100581.92;2826793;83;21060;-61
2021/10/19 15:27:42;;;;;;;6.25;5.53;;;;;;;17.59;63.34;100580.42;2825006;83;20966;-62
2021/10/19 15:31:47;;;;;;;11.93;8.10;;;;;;;17.45;63.52;100584.56;2851200;82;21025;-62
2021/10/19 15:35:51;;;;;;;14.70;7.60;;;;;;;17.26;64.11;100583.83;2852362;83;21717;-63
2021/10/19 15:39:57;;;;;;;15.63;8.23;;;;;;;17.11;63.97;100583.61;2852138;83;20990;-64
2021/10/19 15:44:01;;;;;;;60.12;23.60;;;;;;;17.02;64.76;100575.19;2849537;83;20998;-65
2021/10/19 15:48:11;;;;;;;18.77;9.83;;;;;;;16.90;64.91;100566.54;2841411;83;21089;-65
2021/10/19 15:52:18;;;;;;;28.38;12.47;;;;;;;16.72;65.35;100569.80;2878091;82;20972;-65
2021/10/19 15:56:23;;;;;;;40.90;22.02;;;;;;;16.65;65.39;100569.07;2846817;82;21006;-64
2021/10/19 16:00:29;;;;;;;24.37;13.75;;;;;;;16.54;65.56;100563.98;2862965;83;21036;-65
2021/10/19 16:04:34;;;;;;;20.72;12.43;;;;;;;16.45;65.80;100555.52;2813704;83;21032;-63
2021/10/19 16:08:40;;;;;;;20.40;12.85;;;;;;;16.31;66.48;100555.11;2844398;83;21018;-64
2021/10/19 16:12:45;;;;;;;18.23;10.08;;;;;;;16.23;66.81;100558.58;2851966;83;21034;-63
2021/10/19 16:16:49;;;;;;;10.03;7.58;;;;;;;16.15;67.09;100549.63;2851806;83;21033;-67
2021/10/19 16:20:56;;;;;;;11.53;9.08;;;;;;;16.12;66.91;100549.42;2851241;83;21055;-67
2021/10/19 16:24:58;;;;;;;11.85;8.10;;;;;;;15.98;67.32;100558.87;2814818;84;21027;-67
2021/10/19 16:29:04;;;;;;;11.33;9.53;;;;;;;15.84;67.75;100566.42;2849183;83;21026;-66
2021/10/19 16:33:07;;;;;;;;;;;;;;;15.81;67.79;100564.54;2849406;83;21041;-60
2021/10/19 16:37:13;;;;;;;15.48;10.80;;;;;;;15.74;68.25;100562.14;2805854;84;20108;-60
2021/10/19 16:41:16;;;;;;;21.85;12.47;;;;;;;15.74;67.92;100557.62;2805816;85;21072;-60
2021/10/19 16:45:21;;;;;;;17.42;12.55;;;;;;;15.73;67.81;100557.29;2834351;83;21029;-61
2021/10/19 16:49:29;;;;;;;16.85;9.70;;;;;;;15.75;67.58;100547.25;2846714;83;21036;-60
2021/10/19 16:53:31;;;;;;;21.10;11.68;;;;;;;15.73;67.33;100547.91;2864175;83;20953;-62
2021/10/19 16:57:33;;;;;;;13.98;10.05;;;;;;;15.69;67.03;100547.84;2852487;83;21939;-62
2021/10/19 17:01:34;;;;;;;13.80;9.23;;;;;;;15.67;67.10;100549.83;2842711;83;21013;-60
2021/10/19 17:05:36;;;;;;;14.18;9.08;;;;;;;15.66;67.17;100554.85;2855507;83;21199;-61
2021/10/19 17:09:38;;;;;;;19.75;10.13;;;;;;;15.65;67.31;100550.00;2832175;83;21000;-60
2021/10/19 17:13:40;;;;;;;16.12;10.53;;;;;;;15.59;67.42;100555.13;2844035;82;20958;-60
2021/10/19 17:17:42;;;;;;;14.28;9.53;;;;;;;15.49;67.23;100547.16;2847198;83;21010;-60
2021/10/19 17:21:44;;;;;;;11.43;9.13;;;;;;;15.49;67.72;100541.79;2803021;83;21062;-61
2021/10/19 17:25:47;;;;;;;15.28;9.80;;;;;;;15.50;67.87;100542.97;2822681;84;20973;-59
2021/10/19 17:29:49;;;;;;;15.83;9.78;;;;;;;15.46;67.94;100542.92;2822681;84;21016;-59
2021/10/19 17:33:50;;;;;;;12.43;9.48;;;;;;;15.41;68.17;100534.50;2829268;83;20991;-61
2021/10/19 17:37:55;;;;;;;12.28;9.48;;;;;;;15.45;68.01;100542.58;2860992;83;21020;-60
2021/10/19 17:41:56;;;;;;;17.05;12.03;;;;;;;15.50;68.23;100546.98;2852145;83;21047;-60
2021/10/19 17:46:04;;;;;;;18.90;11.70;;;;;;;15.52;68.00;100546.33;2825366;83;20983;-60
2021/10/19 17:50:09;;;;;;;20.60;13.68;;;;;;;15.55;68.24;100547.39;2812353;84;20983;-60
2021/10/19 17:54:10;;;;;;;21.40;13.43;;;;;;;15.56;67.88;100538.36;2812062;84;21830;-60
2021/10/19 17:58:12;;;;;;;16.80;12.75;;;;;;;15.57;67.75;100533.81;2812057;84;21034;-61
2021/10/19 18:02:14;;;;;;;22.52;14.15;;;;;;;15.59;67.80;100533.68;2812185;84;21008;-60
2021/10/19 18:06:16;;;;;;;13.15;11.33;;;;;;;15.62;68.18;100530.69;2812167;84;21022;-60
2021/10/19 18:10:23;;;;;;;15.95;11.12;;;;;;;15.61;68.13;100523.64;2818677;84;21011;-60
2021/10/19 18:14:24;;;;;;;12.78;9.80;;;;;;;15.62;68.08;100515.94;2829808;84;21058;-60
2021/10/19 18:18:27;;;;;;;15.83;11.20;;;;;;;15.60;68.14;100513.40;2823438;84;21000;-60
2021/10/19 18:22:29;;;;;;;15.18;10.43;;;;;;;15.58;68.23;100510.55;2820377;84;21022;-60
2021/10/19 18:26:31;;;;;;;13.62;10.03;;;;;;;15.59;68.38;100506.87;2811766;84;21093;-60
2021/10/19 18:30:35;;;;;;;13.53;11.05;;;;;;;15.61;68.59;100506.21;2811894;84;21006;-59
2021/10/19 18:34:37;;;;;;;15.03;10.53;;;;;;;15.56;68.61;100501.30;2812355;84;21038;-60
2021/10/19 18:38:39;;;;;;;16.40;11.40;;;;;;;15.50;68.77;100497.39;2813291;84;21067;-60
2021/10/19 18:42:43;;;;;;;16.02;9.85;;;;;;;15.55;68.98;100488.41;2829575;84;21101;-60
2021/10/19 18:46:45;;;;;;;13.62;10.72;;;;;;;15.45;69.50;100487.63;2829599;83;21091;-60
2021/10/19 18:50:46;;;;;;;13.40;9.30;;;;;;;15.47;70.08;100480.79;2788999;84;21048;-60